createdAt,value
2018-12-21T00:21:36.152Z,5.60
2018-12-21T00:24:18.562Z,5.70
2018-12-21T00:29:52.593Z,5.80
2018-12-21T00:41:11.297Z,5.80
2018-12-21T00:59:19.765Z,5.60
2018-12-21T01:02:00.370Z,5.80
2018-12-21T01:04:40.321Z,5.60
2018-12-21T01:10:14.350Z,5.50
2018-12-21T01:15:42.028Z,5.50
2018-12-21T01:18:28.528Z,5.50
2018-12-21T01:21:12.369Z,5.50
2018-12-21T01:29:36.805Z,5.60
2018-12-21T01:35:08.155Z,5.60
2018-12-21T01:56:02.349Z,5.40
2018-12-21T02:10:04.285Z,4.80
2018-12-21T02:12:45.839Z,4.90
2018-12-21T02:15:25.618Z,4.90
2018-12-21T02:18:06.387Z,5.00
2018-12-21T02:23:39.390Z,5.00
2018-12-21T02:29:06.457Z,4.90
2018-12-21T02:40:19.631Z,4.80
2018-12-21T02:43:00.407Z,4.70
2018-12-21T02:45:41.375Z,4.70
2018-12-21T02:48:26.443Z,4.70
2018-12-21T02:51:17.448Z,4.60
2018-12-21T02:59:42.487Z,4.80
2018-12-21T03:02:26.741Z,4.80
2018-12-21T03:10:41.332Z,4.80
2018-12-21T03:19:01.655Z,5.10
2018-12-21T03:30:19.557Z,5.10
2018-12-21T03:38:45.598Z,5.10
2018-12-21T03:41:24.544Z,5.10
2018-12-21T03:44:06.524Z,5.10
2018-12-21T03:58:03.053Z,4.90
2018-12-21T04:06:23.658Z,4.70
2018-12-21T04:11:57.688Z,4.70
2018-12-21T04:17:35.605Z,4.70
2018-12-21T04:47:17.579Z,4.30
2018-12-21T04:50:01.004Z,4.30
2018-12-21T04:55:24.587Z,4.30
2018-12-21T04:58:04.740Z,4.30
2018-12-21T05:09:17.714Z,4.20
2018-12-21T05:12:01.352Z,4.30
2018-12-21T05:20:26.141Z,4.20
2018-12-21T05:33:50.633Z,4.20
2018-12-21T05:39:27.734Z,4.20
2018-12-21T05:45:04.150Z,4.20
2018-12-21T05:47:48.148Z,4.10
2018-12-21T05:53:24.752Z,4.30
2018-12-21T05:56:08.146Z,4.30
2018-12-21T06:11:27.737Z,4.20
2018-12-21T06:25:26.168Z,4.10
2018-12-21T06:28:07.767Z,4.20
2018-12-21T06:39:17.226Z,4.20
2018-12-21T06:45:03.988Z,4.30
2018-12-21T06:47:48.853Z,4.40
2018-12-21T06:50:36.788Z,4.40
2018-12-21T07:14:51.682Z,4.60
2018-12-21T07:25:59.964Z,4.80
2018-12-21T07:28:45.312Z,4.80
2018-12-21T07:42:48.794Z,4.80
2018-12-21T08:53:54.705Z,5.40
2018-12-21T08:56:29.754Z,5.30
2018-12-21T08:59:07.679Z,5.40
2018-12-21T09:01:52.881Z,5.40
2018-12-21T09:04:33.568Z,5.40
2018-12-21T09:07:14.191Z,5.50
2018-12-21T09:09:56.902Z,5.40
2018-12-21T09:12:34.300Z,5.50
2018-12-21T09:15:14.380Z,5.60
2018-12-21T09:17:58.684Z,5.60
2018-12-21T09:20:40.955Z,5.60
2018-12-21T09:23:21.989Z,5.70
2018-12-21T09:26:01.057Z,5.80
2018-12-21T09:28:42.679Z,5.80
2018-12-21T09:31:20.522Z,5.90
2018-12-21T09:33:57.036Z,6.00
2018-12-21T09:36:30.020Z,6.10
2018-12-21T09:39:15.579Z,6.20
2018-12-21T09:41:53.476Z,6.30
2018-12-21T09:44:32.445Z,6.30
2018-12-21T09:47:07.493Z,6.50
2018-12-21T09:49:47.730Z,6.50
2018-12-21T09:52:23.197Z,6.60
2018-12-21T09:55:04.249Z,6.80
2018-12-21T09:57:39.320Z,6.70
2018-12-21T10:00:25.721Z,6.70
2018-12-21T10:03:01.822Z,6.80
2018-12-21T10:05:39.340Z,6.70
2018-12-21T10:08:14.746Z,6.90
2018-12-21T10:10:51.623Z,7.00
2018-12-21T10:13:25.106Z,7.10
2018-12-21T10:16:04.345Z,7.10
2018-12-21T10:22:01.222Z,7.20
2018-12-21T10:24:42.577Z,7.20
2018-12-21T10:27:17.660Z,7.30
2018-12-21T10:29:58.426Z,7.40
2018-12-21T10:32:32.885Z,7.30
2018-12-21T10:35:06.882Z,7.30
2018-12-21T10:37:46.359Z,7.30
2018-12-21T10:40:29.849Z,7.30
2018-12-21T10:43:12.964Z,7.40
2018-12-21T10:45:48.479Z,7.40
2018-12-21T10:48:25.050Z,7.40
2018-12-21T10:50:58.475Z,7.40
2018-12-21T10:53:36.620Z,7.40
2018-12-21T10:56:11.358Z,7.50
2018-12-21T10:58:52.225Z,7.50
2018-12-21T11:01:27.076Z,7.50
2018-12-21T11:04:07.400Z,7.40
2018-12-21T11:06:44.216Z,7.40
2018-12-21T11:09:20.809Z,7.40
2018-12-21T11:11:59.456Z,7.30
2018-12-21T11:14:35.265Z,7.40
2018-12-21T11:17:22.285Z,7.40
2018-12-21T11:20:09.134Z,7.30
2018-12-21T11:22:45.529Z,7.40
2018-12-21T11:25:22.355Z,7.50
2018-12-21T11:27:57.786Z,7.50
2018-12-21T11:30:33.799Z,7.50
2018-12-21T11:33:15.513Z,7.50
2018-12-21T11:35:59.562Z,7.40
2018-12-21T11:38:51.486Z,7.50
2018-12-21T11:41:36.949Z,7.50
2018-12-21T11:44:27.015Z,7.40
2018-12-21T11:49:52.245Z,7.50
2018-12-21T11:55:27.211Z,7.40
2018-12-21T11:58:03.005Z,7.50
2018-12-21T12:00:46.058Z,7.50
2018-12-21T12:03:24.268Z,7.60
2018-12-21T12:09:06.693Z,7.60
2018-12-21T12:11:49.244Z,7.50
2018-12-21T12:14:36.976Z,7.40
2018-12-21T12:17:27.279Z,7.40
2018-12-21T12:20:03.022Z,7.50
2018-12-21T12:22:43.223Z,7.50
2018-12-21T12:25:21.374Z,7.40
2018-12-21T12:28:06.176Z,7.40
2018-12-21T12:30:52.759Z,7.40
2018-12-21T12:33:33.925Z,7.50
2018-12-21T12:36:17.260Z,7.50
2018-12-21T12:38:54.880Z,7.40
2018-12-21T12:41:41.353Z,7.40
2018-12-21T12:44:28.711Z,7.40
2018-12-21T12:50:03.557Z,7.30
2018-12-21T12:52:42.676Z,7.40
2018-12-21T12:55:28.898Z,7.50
2018-12-21T12:58:12.244Z,7.50
2018-12-21T13:00:54.429Z,7.50
2018-12-21T13:03:38.187Z,7.50
2018-12-21T13:06:19.753Z,7.60
2018-12-21T13:08:54.591Z,7.50
2018-12-21T13:11:39.897Z,7.50
2018-12-21T13:14:18.785Z,7.40
2018-12-21T13:17:08.407Z,7.40
2018-12-21T13:22:29.962Z,7.40
2018-12-21T13:25:13.772Z,7.40
2018-12-21T13:27:56.787Z,7.50
2018-12-21T13:30:36.427Z,7.50
2018-12-21T13:33:22.309Z,7.50
2018-12-21T13:35:59.641Z,7.60
2018-12-21T13:38:46.619Z,7.60
2018-12-21T13:41:29.752Z,7.60
2018-12-21T13:44:19.860Z,7.60
2018-12-21T13:47:05.968Z,7.60
2018-12-21T13:49:58.269Z,7.50
2018-12-21T13:52:43.638Z,7.60
2018-12-21T13:55:20.488Z,7.50
2018-12-21T13:57:58.700Z,7.60
2018-12-21T14:03:28.866Z,7.60
2018-12-21T14:06:08.494Z,7.60
2018-12-21T14:08:53.111Z,7.60
2018-12-21T14:11:36.084Z,7.60
2018-12-21T14:14:12.630Z,7.70
2018-12-21T14:16:53.413Z,7.70
2018-12-21T14:19:45.845Z,7.60
2018-12-21T14:22:20.931Z,7.40
2018-12-21T14:24:58.358Z,7.30
2018-12-21T14:27:38.163Z,7.30
2018-12-21T14:30:17.876Z,7.40
2018-12-21T14:33:04.284Z,7.50
2018-12-21T14:35:40.072Z,7.50
2018-12-21T14:38:16.241Z,7.60
2018-12-21T14:40:53.782Z,7.60
2018-12-21T14:43:30.976Z,7.50
2018-12-21T14:46:08.013Z,7.60
2018-12-21T14:48:47.306Z,7.50
2018-12-21T14:51:22.668Z,7.50
2018-12-21T14:54:01.523Z,7.40
2018-12-21T14:56:36.178Z,7.50
2018-12-21T14:59:10.806Z,7.40
2018-12-21T15:01:48.183Z,7.40
2018-12-21T15:04:23.280Z,7.40
2018-12-21T15:06:59.849Z,7.50
2018-12-21T15:09:36.253Z,7.50
2018-12-21T15:12:15.642Z,7.50
2018-12-21T15:15:02.589Z,7.50
2018-12-21T15:17:38.931Z,7.50
2018-12-21T15:20:18.293Z,7.50
2018-12-21T15:22:56.869Z,7.50
2018-12-21T15:25:31.100Z,7.50
2018-12-21T15:28:12.085Z,7.50
2018-12-21T15:30:56.541Z,7.50
2018-12-21T15:33:32.645Z,7.50
2018-12-21T15:36:10.210Z,7.50
2018-12-21T15:38:52.245Z,7.50
2018-12-21T15:41:30.786Z,7.60
2018-12-21T15:44:06.855Z,7.60
2018-12-21T15:46:55.208Z,7.60
2018-12-21T15:49:38.034Z,7.60
2018-12-21T15:52:16.964Z,7.60
2018-12-21T15:54:59.843Z,7.50
2018-12-21T15:57:42.020Z,7.60
2018-12-21T16:00:17.203Z,7.30
2018-12-21T16:02:54.880Z,6.80
2018-12-21T16:05:31.064Z,6.70
2018-12-21T16:08:08.974Z,6.70
2018-12-21T16:10:41.969Z,6.70
2018-12-21T16:13:21.973Z,6.70
2018-12-21T16:15:56.674Z,6.70
2018-12-21T16:18:36.501Z,6.60
2018-12-21T16:21:13.581Z,6.60
2018-12-21T16:23:51.385Z,6.60
2018-12-21T16:26:29.611Z,6.40
2018-12-21T16:29:05.176Z,6.40
2018-12-21T16:31:40.971Z,6.30
2018-12-21T16:34:17.512Z,6.20
2018-12-21T16:36:53.429Z,6.30
2018-12-21T16:39:34.293Z,6.40
2018-12-21T16:42:14.286Z,6.50
2018-12-21T16:44:48.798Z,6.70
2018-12-21T16:47:23.837Z,6.80
2018-12-21T16:49:57.249Z,6.80
2018-12-21T16:52:35.424Z,6.80
2018-12-21T16:55:15.390Z,6.80
2018-12-21T16:58:00.529Z,6.80
2018-12-21T17:00:33.469Z,6.70
2018-12-21T17:03:15.629Z,6.90
2018-12-21T17:05:43.829Z,6.90
2018-12-21T17:08:28.654Z,7.00
2018-12-21T17:11:04.830Z,7.00
2018-12-21T17:13:37.518Z,7.00
2018-12-21T17:16:11.877Z,7.10
2018-12-21T17:18:46.522Z,7.10
2018-12-21T17:21:23.635Z,7.30
2018-12-21T17:24:11.466Z,7.30
2018-12-21T17:26:46.254Z,7.50
2018-12-21T17:29:19.994Z,7.60
2018-12-21T17:31:53.267Z,7.60
2018-12-21T17:34:26.253Z,7.60
2018-12-21T17:36:59.491Z,7.60
2018-12-21T17:39:34.795Z,7.60
2018-12-21T17:42:10.439Z,7.70
2018-12-21T17:44:44.193Z,7.70
2018-12-21T17:47:17.016Z,7.70
2018-12-21T17:49:53.332Z,7.80
2018-12-21T17:52:26.033Z,7.80
2018-12-21T17:55:07.507Z,7.80
2018-12-21T17:57:42.045Z,7.50
2018-12-21T18:00:20.415Z,7.40
2018-12-21T18:02:56.474Z,7.30
2018-12-21T18:05:32.409Z,7.10
2018-12-21T18:08:05.431Z,6.90
2018-12-21T18:10:40.106Z,6.80
2018-12-21T18:13:20.394Z,6.70
2018-12-21T18:15:58.146Z,6.70
2018-12-21T18:18:37.621Z,6.60
2018-12-21T18:21:15.945Z,6.50
2018-12-21T18:23:52.306Z,6.50
2018-12-21T18:26:28.833Z,6.40
2018-12-21T18:29:02.151Z,6.40
2018-12-21T18:31:53.994Z,6.40
2018-12-21T18:34:34.509Z,6.50
2018-12-21T18:37:19.707Z,6.50
2018-12-21T18:39:54.154Z,6.60
2018-12-21T18:42:34.117Z,6.70
2018-12-21T18:45:08.901Z,6.70
2018-12-21T18:47:42.746Z,6.60
2018-12-21T18:50:20.615Z,6.70
2018-12-21T18:52:56.538Z,6.70
2018-12-21T18:55:37.556Z,6.70
2018-12-21T18:58:13.455Z,6.70
2018-12-21T19:00:46.768Z,6.70
2018-12-21T19:03:23.306Z,6.70
2018-12-21T19:05:58.279Z,6.80
2018-12-21T19:08:32.188Z,6.80
2018-12-21T19:13:52.539Z,6.90
2018-12-21T19:16:30.081Z,6.90
2018-12-21T19:19:17.658Z,7.00
2018-12-21T19:21:55.016Z,6.90
2018-12-21T19:24:30.061Z,6.90
2018-12-21T19:27:05.993Z,6.80
2018-12-21T19:32:40.758Z,6.80
2018-12-21T19:35:30.287Z,6.80
2018-12-21T19:38:11.698Z,6.90
2018-12-21T19:43:42.846Z,7.10
2018-12-21T19:46:24.440Z,7.10
2018-12-21T19:49:09.507Z,6.90
2018-12-21T19:51:43.145Z,6.80
2018-12-21T19:54:23.772Z,6.80
2018-12-21T19:57:13.235Z,6.80
2018-12-21T20:00:08.519Z,6.80
2018-12-21T20:02:51.564Z,6.70
2018-12-21T20:05:28.532Z,6.70
2018-12-21T20:08:02.382Z,6.70
2018-12-21T20:10:42.120Z,6.60
2018-12-21T20:13:20.933Z,6.50
2018-12-21T20:18:42.082Z,6.50
2018-12-21T20:21:25.710Z,6.50
2018-12-21T20:24:05.488Z,6.50
2018-12-21T20:26:57.580Z,6.50
2018-12-21T20:29:58.682Z,6.50
2018-12-21T20:32:39.152Z,6.50
2018-12-21T20:35:29.608Z,6.50
2018-12-21T20:38:09.957Z,6.40
2018-12-21T20:41:36.840Z,6.40
2018-12-21T20:44:13.224Z,6.40
2018-12-21T20:46:50.605Z,6.40
2018-12-21T20:49:34.679Z,6.40
2018-12-21T20:52:16.150Z,6.40
2018-12-21T20:54:55.490Z,6.40
2018-12-21T20:57:38.625Z,6.50
2018-12-21T21:00:27.104Z,6.50
2018-12-21T21:03:04.010Z,6.50
2018-12-21T21:05:50.139Z,6.50
2018-12-21T21:08:39.638Z,6.60
2018-12-21T21:11:25.053Z,6.70
2018-12-21T21:14:06.012Z,6.70
2018-12-21T21:16:49.836Z,6.80
2018-12-21T21:19:35.410Z,6.70
2018-12-21T21:22:29.499Z,6.80
2018-12-21T21:25:13.963Z,6.70
2018-12-21T21:27:51.340Z,6.60
2018-12-21T21:30:33.942Z,6.60
2018-12-21T21:33:22.783Z,6.70
2018-12-21T21:36:01.945Z,6.70
2018-12-21T21:38:38.197Z,6.70
2018-12-21T21:44:12.481Z,6.70
2018-12-21T21:46:56.301Z,6.80
2018-12-21T21:49:47.549Z,6.90
2018-12-21T21:52:40.068Z,6.90
2018-12-21T21:55:26.090Z,7.00
2018-12-21T21:58:02.518Z,7.00
2018-12-21T22:00:48.324Z,7.00
2018-12-21T22:03:34.953Z,7.20
2018-12-21T22:06:15.682Z,7.30
2018-12-21T22:08:53.282Z,7.60
2018-12-21T22:14:26.321Z,8.00
2018-12-21T22:17:08.128Z,8.20
2018-12-21T22:19:47.998Z,8.30
2018-12-21T22:22:30.511Z,8.40
2018-12-21T22:25:10.630Z,8.60
2018-12-21T22:27:54.406Z,8.60
2018-12-21T22:30:31.020Z,8.70
2018-12-21T22:33:05.389Z,8.90
2018-12-21T22:35:38.351Z,8.90
2018-12-21T22:38:13.585Z,9.00
2018-12-21T22:40:52.771Z,9.30
2018-12-21T22:43:32.756Z,9.40
2018-12-21T22:46:13.777Z,9.40
2018-12-21T22:48:49.611Z,9.40
2018-12-21T22:51:25.663Z,9.50
2018-12-21T22:54:00.337Z,9.50
2018-12-21T22:56:40.216Z,9.50
2018-12-21T22:59:14.995Z,9.60
2018-12-21T23:01:54.783Z,9.60
2018-12-21T23:04:36.033Z,9.60
2018-12-21T23:07:15.728Z,9.50
2018-12-21T23:10:01.046Z,9.50
2018-12-21T23:12:41.344Z,9.50
2018-12-21T23:15:20.196Z,9.50
2018-12-21T23:18:01.870Z,9.50
2018-12-21T23:20:40.706Z,9.70
2018-12-21T23:23:16.489Z,9.70
2018-12-21T23:25:51.549Z,9.60
2018-12-21T23:28:26.604Z,9.60
2018-12-21T23:31:02.051Z,9.50
2018-12-21T23:33:39.426Z,9.50
2018-12-21T23:36:14.462Z,9.50
2018-12-21T23:38:50.596Z,9.40
2018-12-21T23:41:29.053Z,9.40
2018-12-21T23:44:07.625Z,9.50
2018-12-21T23:46:47.567Z,9.50
2018-12-21T23:49:26.009Z,9.50
2018-12-21T23:52:11.197Z,9.50
2018-12-21T23:54:51.145Z,9.50
2018-12-21T23:57:26.660Z,9.50
